sensor_id;sensor_type;location;lat;lon;timestamp;temperature;humidity
13223;DHT22;6676;45.192;5.722;2023-03-20T00:03:39;8.50;99.90
13223;DHT22;6676;45.192;5.722;2023-03-20T00:06:34;8.60;99.90
13223;DHT22;6676;45.192;5.722;2023-03-20T00:09:25;8.60;99.90
13223;DHT22;6676;45.192;5.722;2023-03-20T00:12:20;8.60;99.90
13223;DHT22;6676;45.192;5.722;2023-03-20T00:15:26;8.70;99.90
13223;DHT22;6676;45.192;5.722;2023-03-20T00:18:19;8.90;99.90
13223;DHT22;6676;45.192;5.722;2023-03-20T00:21:15;8.90;99.90
13223;DHT22;6676;45.192;5.722;2023-03-20T00:27:54;9.00;99.90
13223;DHT22;6676;45.192;5.722;2023-03-20T00:30:45;9.10;99.90
13223;DHT22;6676;45.192;5.722;2023-03-20T00:33:37;9.10;99.90
13223;DHT22;6676;45.192;5.722;2023-03-20T00:36:30;9.20;99.90
13223;DHT22;6676;45.192;5.722;2023-03-20T00:39:22;9.30;99.90
13223;DHT22;6676;45.192;5.722;2023-03-20T00:45:03;9.30;99.90
13223;DHT22;6676;45.192;5.722;2023-03-20T00:53:11;9.30;99.90
13223;DHT22;6676;45.192;5.722;2023-03-20T00:56:03;9.30;99.90
13223;DHT22;6676;45.192;5.722;2023-03-20T00:58:54;9.40;99.90
13223;DHT22;6676;45.192;5.722;2023-03-20T01:01:47;9.40;99.90
13223;DHT22;6676;45.192;5.722;2023-03-20T01:04:40;9.30;99.90
13223;DHT22;6676;45.192;5.722;2023-03-20T01:07:32;9.20;99.90
13223;DHT22;6676;45.192;5.722;2023-03-20T01:48:55;8.70;99.90
13223;DHT22;6676;45.192;5.722;2023-03-20T01:51:48;8.70;99.90
13223;DHT22;6676;45.192;5.722;2023-03-20T01:54:41;8.70;99.90
13223;DHT22;6676;45.192;5.722;2023-03-20T01:57:35;8.70;99.90
13223;DHT22;6676;45.192;5.722;2023-03-20T02:00:28;8.70;99.90
13223;DHT22;6676;45.192;5.722;2023-03-20T02:03:19;8.70;99.90
13223;DHT22;6676;45.192;5.722;2023-03-20T02:09:25;8.50;99.90
13223;DHT22;6676;45.192;5.722;2023-03-20T02:14:59;8.40;99.90
13223;DHT22;6676;45.192;5.722;2023-03-20T02:18:11;8.40;99.90
13223;DHT22;6676;45.192;5.722;2023-03-20T02:39:17;8.50;99.90
13223;DHT22;6676;45.192;5.722;2023-03-20T02:42:14;8.50;99.90
13223;DHT22;6676;45.192;5.722;2023-03-20T02:45:12;8.70;99.90
13223;DHT22;6676;45.192;5.722;2023-03-20T02:50:52;8.80;99.90
13223;DHT22;6676;45.192;5.722;2023-03-20T02:53:49;8.80;99.90
13223;DHT22;6676;45.192;5.722;2023-03-20T02:59:32;8.70;99.90
13223;DHT22;6676;45.192;5.722;2023-03-20T03:05:20;8.70;99.90
13223;DHT22;6676;45.192;5.722;2023-03-20T03:08:14;8.70;99.90
13223;DHT22;6676;45.192;5.722;2023-03-20T03:13:53;8.70;99.90
13223;DHT22;6676;45.192;5.722;2023-03-20T03:19:35;8.70;99.90
13223;DHT22;6676;45.192;5.722;2023-03-20T03:22:28;8.70;99.90
13223;DHT22;6676;45.192;5.722;2023-03-20T03:25:22;8.50;99.90
13223;DHT22;6676;45.192;5.722;2023-03-20T03:31:00;8.40;99.90
13223;DHT22;6676;45.192;5.722;2023-03-20T03:33:57;8.60;99.90
13223;DHT22;6676;45.192;5.722;2023-03-20T03:36:52;8.60;99.90
13223;DHT22;6676;45.192;5.722;2023-03-20T03:42:34;8.40;99.90
13223;DHT22;6676;45.192;5.722;2023-03-20T03:45:29;8.40;99.90
13223;DHT22;6676;45.192;5.722;2023-03-20T03:51:10;8.40;99.90
13223;DHT22;6676;45.192;5.722;2023-03-20T03:54:08;8.40;99.90
13223;DHT22;6676;45.192;5.722;2023-03-20T03:59:52;8.00;99.90
13223;DHT22;6676;45.192;5.722;2023-03-20T04:02:48;8.00;99.90
13223;DHT22;6676;45.192;5.722;2023-03-20T04:08:24;7.80;99.90
13223;DHT22;6676;45.192;5.722;2023-03-20T04:11:17;7.70;99.90
13223;DHT22;6676;45.192;5.722;2023-03-20T04:30:33;7.40;99.90
13223;DHT22;6676;45.192;5.722;2023-03-20T04:33:35;7.60;99.90
13223;DHT22;6676;45.192;5.722;2023-03-20T04:39:31;7.40;99.90
13223;DHT22;6676;45.192;5.722;2023-03-20T04:45:15;7.30;99.90
13223;DHT22;6676;45.192;5.722;2023-03-20T04:50:47;7.30;99.90
13223;DHT22;6676;45.192;5.722;2023-03-20T04:53:41;7.20;99.90
13223;DHT22;6676;45.192;5.722;2023-03-20T04:56:34;7.20;99.90
13223;DHT22;6676;45.192;5.722;2023-03-20T05:05:03;7.30;99.90
13223;DHT22;6676;45.192;5.722;2023-03-20T05:08:02;7.30;99.90
13223;DHT22;6676;45.192;5.722;2023-03-20T05:10:59;7.30;99.90
13223;DHT22;6676;45.192;5.722;2023-03-20T05:14:09;7.30;99.90
13223;DHT22;6676;45.192;5.722;2023-03-20T05:17:15;7.30;99.90
13223;DHT22;6676;45.192;5.722;2023-03-20T05:20:10;7.40;99.90
13223;DHT22;6676;45.192;5.722;2023-03-20T05:23:09;7.20;99.90
13223;DHT22;6676;45.192;5.722;2023-03-20T05:26:08;7.20;99.90
13223;DHT22;6676;45.192;5.722;2023-03-20T05:32:06;7.30;99.90
13223;DHT22;6676;45.192;5.722;2023-03-20T05:37:57;7.30;99.90
13223;DHT22;6676;45.192;5.722;2023-03-20T05:44:12;7.60;99.90
13223;DHT22;6676;45.192;5.722;2023-03-20T05:47:11;7.70;99.90
13223;DHT22;6676;45.192;5.722;2023-03-20T05:50:13;7.50;99.90
13223;DHT22;6676;45.192;5.722;2023-03-20T05:53:15;7.40;99.90
13223;DHT22;6676;45.192;5.722;2023-03-20T05:56:21;7.50;99.90
13223;DHT22;6676;45.192;5.722;2023-03-20T05:59:14;7.40;99.90
13223;DHT22;6676;45.192;5.722;2023-03-20T06:02:13;7.30;99.90
13223;DHT22;6676;45.192;5.722;2023-03-20T06:05:07;7.30;99.90
13223;DHT22;6676;45.192;5.722;2023-03-20T06:08:04;7.40;99.90
13223;DHT22;6676;45.192;5.722;2023-03-20T06:10:56;7.50;99.90
13223;DHT22;6676;45.192;5.722;2023-03-20T06:16:33;7.40;99.90
13223;DHT22;6676;45.192;5.722;2023-03-20T06:19:26;7.40;99.90
13223;DHT22;6676;45.192;5.722;2023-03-20T06:22:20;7.50;99.90
13223;DHT22;6676;45.192;5.722;2023-03-20T06:25:12;7.60;99.90
13223;DHT22;6676;45.192;5.722;2023-03-20T06:28:05;7.60;99.90
13223;DHT22;6676;45.192;5.722;2023-03-20T06:30:59;7.70;99.90
13223;DHT22;6676;45.192;5.722;2023-03-20T06:33:54;7.70;99.90
13223;DHT22;6676;45.192;5.722;2023-03-20T06:41:32;7.80;99.90
13223;DHT22;6676;45.192;5.722;2023-03-20T06:44:26;7.90;99.90
13223;DHT22;6676;45.192;5.722;2023-03-20T06:47:20;8.00;99.90
13223;DHT22;6676;45.192;5.722;2023-03-20T06:50:13;8.10;99.90
13223;DHT22;6676;45.192;5.722;2023-03-20T06:53:05;8.20;99.90
13223;DHT22;6676;45.192;5.722;2023-03-20T06:56:06;8.30;99.90
13223;DHT22;6676;45.192;5.722;2023-03-20T06:59:00;8.30;99.90
13223;DHT22;6676;45.192;5.722;2023-03-20T07:01:52;8.30;99.90
13223;DHT22;6676;45.192;5.722;2023-03-20T07:04:44;8.40;99.90
13223;DHT22;6676;45.192;5.722;2023-03-20T07:07:36;8.40;99.90
13223;DHT22;6676;45.192;5.722;2023-03-20T07:10:28;8.40;99.90
13223;DHT22;6676;45.192;5.722;2023-03-20T07:20:05;8.60;99.90
13223;DHT22;6676;45.192;5.722;2023-03-20T07:22:57;8.60;99.90
13223;DHT22;6676;45.192;5.722;2023-03-20T07:25:51;8.70;99.90
13223;DHT22;6676;45.192;5.722;2023-03-20T07:28:43;8.80;99.90
13223;DHT22;6676;45.192;5.722;2023-03-20T07:35:29;9.00;99.90
13223;DHT22;6676;45.192;5.722;2023-03-20T07:38:22;9.00;99.90
13223;DHT22;6676;45.192;5.722;2023-03-20T07:41:16;9.10;99.90
13223;DHT22;6676;45.192;5.722;2023-03-20T07:44:11;9.20;99.90
13223;DHT22;6676;45.192;5.722;2023-03-20T07:49:56;9.40;99.90
13223;DHT22;6676;45.192;5.722;2023-03-20T07:52:48;9.40;99.90
13223;DHT22;6676;45.192;5.722;2023-03-20T07:55:43;9.50;99.90
13223;DHT22;6676;45.192;5.722;2023-03-20T08:12:32;9.70;99.90
13223;DHT22;6676;45.192;5.722;2023-03-20T09:35:00;11.90;99.90
13223;DHT22;6676;45.192;5.722;2023-03-20T09:40:48;11.90;99.90
13223;DHT22;6676;45.192;5.722;2023-03-20T09:43:48;11.80;99.90
13223;DHT22;6676;45.192;5.722;2023-03-20T09:49:44;11.60;99.90
13223;DHT22;6676;45.192;5.722;2023-03-20T09:55:33;11.50;99.90
13223;DHT22;6676;45.192;5.722;2023-03-20T10:01:15;11.80;99.90
13223;DHT22;6676;45.192;5.722;2023-03-20T10:04:08;11.90;99.90
13223;DHT22;6676;45.192;5.722;2023-03-20T10:09:49;11.70;99.90
13223;DHT22;6676;45.192;5.722;2023-03-20T10:15:36;11.80;99.90
13223;DHT22;6676;45.192;5.722;2023-03-20T10:18:29;11.80;99.90
13223;DHT22;6676;45.192;5.722;2023-03-20T10:24:13;11.90;99.90
13223;DHT22;6676;45.192;5.722;2023-03-20T10:27:12;11.80;99.90
13223;DHT22;6676;45.192;5.722;2023-03-20T10:33:21;11.70;99.90
13223;DHT22;6676;45.192;5.722;2023-03-20T10:36:22;11.80;99.90
13223;DHT22;6676;45.192;5.722;2023-03-20T10:39:16;11.80;99.90
13223;DHT22;6676;45.192;5.722;2023-03-20T10:42:14;11.90;99.90
13223;DHT22;6676;45.192;5.722;2023-03-20T10:45:08;11.90;99.90
13223;DHT22;6676;45.192;5.722;2023-03-20T10:48:03;11.90;99.90
13223;DHT22;6676;45.192;5.722;2023-03-20T10:50:57;11.90;99.90
13223;DHT22;6676;45.192;5.722;2023-03-20T10:53:53;11.80;99.90
13223;DHT22;6676;45.192;5.722;2023-03-20T10:59:35;11.50;99.90
13223;DHT22;6676;45.192;5.722;2023-03-20T11:05:17;11.40;99.90
13223;DHT22;6676;45.192;5.722;2023-03-20T11:08:05;11.30;99.90
13223;DHT22;6676;45.192;5.722;2023-03-20T11:13:41;11.30;99.90
13223;DHT22;6676;45.192;5.722;2023-03-20T11:16:33;11.30;99.90
13223;DHT22;6676;45.192;5.722;2023-03-20T11:19:28;11.40;99.90
13223;DHT22;6676;45.192;5.722;2023-03-20T11:22:25;11.30;99.90
13223;DHT22;6676;45.192;5.722;2023-03-20T11:25:27;11.30;99.90
13223;DHT22;6676;45.192;5.722;2023-03-20T11:28:24;11.40;99.90
13223;DHT22;6676;45.192;5.722;2023-03-20T11:31:20;11.40;99.90
13223;DHT22;6676;45.192;5.722;2023-03-20T11:34:22;11.50;99.90
13223;DHT22;6676;45.192;5.722;2023-03-20T11:37:23;11.50;99.90
13223;DHT22;6676;45.192;5.722;2023-03-20T11:40:20;11.50;99.90
13223;DHT22;6676;45.192;5.722;2023-03-20T11:43:12;11.50;99.90
13223;DHT22;6676;45.192;5.722;2023-03-20T11:46:11;11.50;99.90
13223;DHT22;6676;45.192;5.722;2023-03-20T11:49:05;11.60;99.90
13223;DHT22;6676;45.192;5.722;2023-03-20T11:51:59;11.60;99.90
13223;DHT22;6676;45.192;5.722;2023-03-20T11:54:53;11.50;99.90
13223;DHT22;6676;45.192;5.722;2023-03-20T11:57:44;11.60;99.90
13223;DHT22;6676;45.192;5.722;2023-03-20T12:00:38;11.80;99.90
13223;DHT22;6676;45.192;5.722;2023-03-20T12:03:45;12.00;99.90
13223;DHT22;6676;45.192;5.722;2023-03-20T12:06:47;11.90;99.90
13223;DHT22;6676;45.192;5.722;2023-03-20T12:09:41;11.90;99.90
13223;DHT22;6676;45.192;5.722;2023-03-20T12:12:37;12.10;99.90
13223;DHT22;6676;45.192;5.722;2023-03-20T12:15:33;12.20;99.90
13223;DHT22;6676;45.192;5.722;2023-03-20T12:18:29;12.30;99.90
13223;DHT22;6676;45.192;5.722;2023-03-20T12:21:23;12.30;99.90
13223;DHT22;6676;45.192;5.722;2023-03-20T12:24:18;12.50;99.90
13223;DHT22;6676;45.192;5.722;2023-03-20T12:27:20;12.60;99.90
13223;DHT22;6676;45.192;5.722;2023-03-20T12:32:59;12.60;99.90
13223;DHT22;6676;45.192;5.722;2023-03-20T12:35:52;12.80;99.90
13223;DHT22;6676;45.192;5.722;2023-03-20T12:38:44;12.90;99.90
13223;DHT22;6676;45.192;5.722;2023-03-20T12:41:42;13.00;99.90
13223;DHT22;6676;45.192;5.722;2023-03-20T12:44:37;13.30;99.90
13223;DHT22;6676;45.192;5.722;2023-03-20T12:47:42;13.30;99.90
13223;DHT22;6676;45.192;5.722;2023-03-20T12:50:35;13.30;99.90
13223;DHT22;6676;45.192;5.722;2023-03-20T12:53:43;13.40;99.90
13223;DHT22;6676;45.192;5.722;2023-03-20T12:56:55;13.50;99.90
13223;DHT22;6676;45.192;5.722;2023-03-20T12:59:52;13.70;99.90
13223;DHT22;6676;45.192;5.722;2023-03-20T13:02:49;13.90;99.90
13223;DHT22;6676;45.192;5.722;2023-03-20T13:05:46;14.20;99.90
13223;DHT22;6676;45.192;5.722;2023-03-20T13:08:59;14.30;99.90
13223;DHT22;6676;45.192;5.722;2023-03-20T13:11:53;14.40;99.90
13223;DHT22;6676;45.192;5.722;2023-03-20T13:14:47;14.50;99.90
13223;DHT22;6676;45.192;5.722;2023-03-20T13:17:41;14.70;99.90
13223;DHT22;6676;45.192;5.722;2023-03-20T13:20:35;14.70;99.90
13223;DHT22;6676;45.192;5.722;2023-03-20T13:23:29;14.90;99.90
13223;DHT22;6676;45.192;5.722;2023-03-20T13:26:28;14.90;99.90
13223;DHT22;6676;45.192;5.722;2023-03-20T13:29:23;15.20;99.90
13223;DHT22;6676;45.192;5.722;2023-03-20T13:32:23;15.40;99.90
13223;DHT22;6676;45.192;5.722;2023-03-20T13:35:29;15.60;99.90
13223;DHT22;6676;45.192;5.722;2023-03-20T13:38:23;15.90;99.90
13223;DHT22;6676;45.192;5.722;2023-03-20T13:41:16;16.00;99.90
13223;DHT22;6676;45.192;5.722;2023-03-20T13:44:08;16.10;99.90
13223;DHT22;6676;45.192;5.722;2023-03-20T13:47:04;16.10;99.90
13223;DHT22;6676;45.192;5.722;2023-03-20T13:50:18;16.30;99.90
13223;DHT22;6676;45.192;5.722;2023-03-20T13:52:55;16.40;99.90
13223;DHT22;6676;45.192;5.722;2023-03-20T13:55:52;16.50;99.90
13223;DHT22;6676;45.192;5.722;2023-03-20T13:58:54;16.60;99.90
13223;DHT22;6676;45.192;5.722;2023-03-20T14:01:51;16.40;99.90
13223;DHT22;6676;45.192;5.722;2023-03-20T14:04:43;16.20;99.90
13223;DHT22;6676;45.192;5.722;2023-03-20T14:07:35;16.30;99.90
13223;DHT22;6676;45.192;5.722;2023-03-20T14:10:35;16.30;99.90
13223;DHT22;6676;45.192;5.722;2023-03-20T14:13:27;16.30;99.90
13223;DHT22;6676;45.192;5.722;2023-03-20T14:16:20;16.30;99.90
13223;DHT22;6676;45.192;5.722;2023-03-20T14:19:17;16.50;99.90
13223;DHT22;6676;45.192;5.722;2023-03-20T14:22:15;16.60;99.90
13223;DHT22;6676;45.192;5.722;2023-03-20T14:25:13;16.90;99.90
13223;DHT22;6676;45.192;5.722;2023-03-20T14:28:22;18.60;99.90
13223;DHT22;6676;45.192;5.722;2023-03-20T14:31:24;19.30;99.90
13223;DHT22;6676;45.192;5.722;2023-03-20T14:34:18;20.00;99.90
13223;DHT22;6676;45.192;5.722;2023-03-20T14:40:27;21.80;99.90
13223;DHT22;6676;45.192;5.722;2023-03-20T14:43:22;23.20;99.90
13223;DHT22;6676;45.192;5.722;2023-03-20T14:46:19;23.80;99.90
13223;DHT22;6676;45.192;5.722;2023-03-20T14:53:07;23.80;92.00
13223;DHT22;6676;45.192;5.722;2023-03-20T14:56:07;22.60;92.60
13223;DHT22;6676;45.192;5.722;2023-03-20T14:59:02;22.40;92.00
13223;DHT22;6676;45.192;5.722;2023-03-20T15:01:58;21.50;92.30
13223;DHT22;6676;45.192;5.722;2023-03-20T15:04:50;20.80;93.10
13223;DHT22;6676;45.192;5.722;2023-03-20T15:07:42;21.10;93.40
13223;DHT22;6676;45.192;5.722;2023-03-20T15:10:36;21.30;92.80
13223;DHT22;6676;45.192;5.722;2023-03-20T15:13:28;21.50;92.80
13223;DHT22;6676;45.192;5.722;2023-03-20T15:16:27;21.70;92.10
13223;DHT22;6676;45.192;5.722;2023-03-20T15:19:19;23.20;92.00
13223;DHT22;6676;45.192;5.722;2023-03-20T15:22:16;24.50;90.20
13223;DHT22;6676;45.192;5.722;2023-03-20T15:25:17;24.70;84.50
13223;DHT22;6676;45.192;5.722;2023-03-20T15:28:11;24.90;84.40
13223;DHT22;6676;45.192;5.722;2023-03-20T15:31:06;25.40;80.10
13223;DHT22;6676;45.192;5.722;2023-03-20T15:33:58;24.50;78.30
13223;DHT22;6676;45.192;5.722;2023-03-20T15:36:51;24.40;80.70
13223;DHT22;6676;45.192;5.722;2023-03-20T15:39:45;25.40;77.80
13223;DHT22;6676;45.192;5.722;2023-03-20T15:42:36;24.90;77.30
13223;DHT22;6676;45.192;5.722;2023-03-20T15:45:31;25.80;77.30
13223;DHT22;6676;45.192;5.722;2023-03-20T15:48:23;25.90;75.40
13223;DHT22;6676;45.192;5.722;2023-03-20T15:51:16;25.50;73.50
13223;DHT22;6676;45.192;5.722;2023-03-20T15:54:09;25.40;73.20
13223;DHT22;6676;45.192;5.722;2023-03-20T15:57:02;25.10;72.70
13223;DHT22;6676;45.192;5.722;2023-03-20T15:59:55;25.20;72.60
13223;DHT22;6676;45.192;5.722;2023-03-20T16:02:47;26.50;72.40
13223;DHT22;6676;45.192;5.722;2023-03-20T16:05:41;26.20;69.20
13223;DHT22;6676;45.192;5.722;2023-03-20T16:08:33;25.10;69.80
13223;DHT22;6676;45.192;5.722;2023-03-20T16:11:32;25.00;70.20
13223;DHT22;6676;45.192;5.722;2023-03-20T16:14:26;25.20;71.20
13223;DHT22;6676;45.192;5.722;2023-03-20T16:17:19;26.40;69.40
13223;DHT22;6676;45.192;5.722;2023-03-20T16:20:14;25.90;68.30
13223;DHT22;6676;45.192;5.722;2023-03-20T16:23:07;24.50;69.10
13223;DHT22;6676;45.192;5.722;2023-03-20T16:25:59;24.50;70.10
13223;DHT22;6676;45.192;5.722;2023-03-20T16:28:55;24.50;70.20
13223;DHT22;6676;45.192;5.722;2023-03-20T16:31:53;23.40;71.20
13223;DHT22;6676;45.192;5.722;2023-03-20T16:34:47;22.60;72.40
13223;DHT22;6676;45.192;5.722;2023-03-20T16:37:45;21.60;74.20
13223;DHT22;6676;45.192;5.722;2023-03-20T16:40:38;21.30;76.10
13223;DHT22;6676;45.192;5.722;2023-03-20T16:43:36;20.90;77.10
13223;DHT22;6676;45.192;5.722;2023-03-20T16:46:28;20.30;78.10
13223;DHT22;6676;45.192;5.722;2023-03-20T16:52:59;18.80;82.60
13223;DHT22;6676;45.192;5.722;2023-03-20T16:58:34;17.30;87.00
13223;DHT22;6676;45.192;5.722;2023-03-20T17:01:28;17.00;89.80
13223;DHT22;6676;45.192;5.722;2023-03-20T17:04:21;16.60;90.70
13223;DHT22;6676;45.192;5.722;2023-03-20T17:07:14;16.30;92.60
13223;DHT22;6676;45.192;5.722;2023-03-20T17:10:17;15.90;94.40
13223;DHT22;6676;45.192;5.722;2023-03-20T17:13:09;15.60;96.20
13223;DHT22;6676;45.192;5.722;2023-03-20T17:16:00;15.40;97.70
13223;DHT22;6676;45.192;5.722;2023-03-20T17:19:00;15.20;99.70
13223;DHT22;6676;45.192;5.722;2023-03-20T17:21:52;15.10;99.90
13223;DHT22;6676;45.192;5.722;2023-03-20T17:24:43;14.90;99.90
13223;DHT22;6676;45.192;5.722;2023-03-20T17:27:35;14.80;99.90
13223;DHT22;6676;45.192;5.722;2023-03-20T17:30:26;14.70;99.90
13223;DHT22;6676;45.192;5.722;2023-03-20T17:33:19;14.70;99.90
13223;DHT22;6676;45.192;5.722;2023-03-20T17:38:55;14.60;99.90
13223;DHT22;6676;45.192;5.722;2023-03-20T17:41:47;14.50;99.90
13223;DHT22;6676;45.192;5.722;2023-03-20T17:44:38;14.40;99.90
13223;DHT22;6676;45.192;5.722;2023-03-20T17:47:30;14.30;99.90
13223;DHT22;6676;45.192;5.722;2023-03-20T17:50:22;14.10;99.90
13223;DHT22;6676;45.192;5.722;2023-03-20T17:53:18;13.90;99.90
13223;DHT22;6676;45.192;5.722;2023-03-20T17:56:13;13.80;99.90
13223;DHT22;6676;45.192;5.722;2023-03-20T17:59:05;13.70;99.90
13223;DHT22;6676;45.192;5.722;2023-03-20T18:01:57;13.70;99.90
13223;DHT22;6676;45.192;5.722;2023-03-20T18:04:49;13.70;99.90
13223;DHT22;6676;45.192;5.722;2023-03-20T18:07:40;13.70;99.90
13223;DHT22;6676;45.192;5.722;2023-03-20T18:10:33;13.50;99.90
13223;DHT22;6676;45.192;5.722;2023-03-20T18:13:26;13.50;99.90
13223;DHT22;6676;45.192;5.722;2023-03-20T18:19:01;13.40;99.90
13223;DHT22;6676;45.192;5.722;2023-03-20T18:24:30;13.30;99.90
13223;DHT22;6676;45.192;5.722;2023-03-20T18:27:21;13.20;99.90
13223;DHT22;6676;45.192;5.722;2023-03-20T18:30:17;13.10;99.90
13223;DHT22;6676;45.192;5.722;2023-03-20T18:33:08;13.10;99.90
13223;DHT22;6676;45.192;5.722;2023-03-20T18:35:59;13.10;99.90
13223;DHT22;6676;45.192;5.722;2023-03-20T18:38:52;13.00;99.90
13223;DHT22;6676;45.192;5.722;2023-03-20T18:41:43;12.90;99.90
13223;DHT22;6676;45.192;5.722;2023-03-20T18:44:34;12.80;99.90
13223;DHT22;6676;45.192;5.722;2023-03-20T18:47:25;12.70;99.90
13223;DHT22;6676;45.192;5.722;2023-03-20T18:50:23;12.70;99.90
13223;DHT22;6676;45.192;5.722;2023-03-20T18:53:15;12.60;99.90
13223;DHT22;6676;45.192;5.722;2023-03-20T18:58:49;12.50;99.90
13223;DHT22;6676;45.192;5.722;2023-03-20T19:01:41;12.50;99.90
13223;DHT22;6676;45.192;5.722;2023-03-20T19:04:32;12.50;99.90
13223;DHT22;6676;45.192;5.722;2023-03-20T19:07:24;12.40;99.90
13223;DHT22;6676;45.192;5.722;2023-03-20T19:10:25;12.40;99.90
13223;DHT22;6676;45.192;5.722;2023-03-20T19:13:18;12.40;99.90
13223;DHT22;6676;45.192;5.722;2023-03-20T19:16:17;12.50;99.90
13223;DHT22;6676;45.192;5.722;2023-03-20T19:19:13;12.50;99.90
13223;DHT22;6676;45.192;5.722;2023-03-20T19:22:07;12.40;99.90
13223;DHT22;6676;45.192;5.722;2023-03-20T19:24:59;12.40;99.90
13223;DHT22;6676;45.192;5.722;2023-03-20T19:27:51;12.30;99.90
13223;DHT22;6676;45.192;5.722;2023-03-20T19:30:42;12.30;99.90
13223;DHT22;6676;45.192;5.722;2023-03-20T19:33:34;12.30;99.90
13223;DHT22;6676;45.192;5.722;2023-03-20T19:36:27;12.20;99.90
13223;DHT22;6676;45.192;5.722;2023-03-20T19:39:18;12.20;99.90
13223;DHT22;6676;45.192;5.722;2023-03-20T19:42:09;12.20;99.90
13223;DHT22;6676;45.192;5.722;2023-03-20T19:45:02;12.10;99.90
13223;DHT22;6676;45.192;5.722;2023-03-20T19:47:54;12.10;99.90
13223;DHT22;6676;45.192;5.722;2023-03-20T19:53:25;12.00;99.90
13223;DHT22;6676;45.192;5.722;2023-03-20T19:56:20;12.00;99.90
13223;DHT22;6676;45.192;5.722;2023-03-20T19:59:11;11.90;99.90
13223;DHT22;6676;45.192;5.722;2023-03-20T20:02:05;11.80;99.90
13223;DHT22;6676;45.192;5.722;2023-03-20T20:04:57;11.70;99.90
13223;DHT22;6676;45.192;5.722;2023-03-20T20:07:47;11.70;99.90
13223;DHT22;6676;45.192;5.722;2023-03-20T20:13:21;11.60;99.90
13223;DHT22;6676;45.192;5.722;2023-03-20T20:16:13;11.60;99.90
13223;DHT22;6676;45.192;5.722;2023-03-20T20:19:04;11.50;99.90
13223;DHT22;6676;45.192;5.722;2023-03-20T20:21:56;11.50;99.90
13223;DHT22;6676;45.192;5.722;2023-03-20T20:24:49;11.50;99.90
13223;DHT22;6676;45.192;5.722;2023-03-20T20:27:41;11.50;99.90
13223;DHT22;6676;45.192;5.722;2023-03-20T20:33:11;11.50;99.90
13223;DHT22;6676;45.192;5.722;2023-03-20T20:38:48;11.40;99.90
13223;DHT22;6676;45.192;5.722;2023-03-20T20:44:20;11.40;99.90
13223;DHT22;6676;45.192;5.722;2023-03-20T20:47:11;11.40;99.90
13223;DHT22;6676;45.192;5.722;2023-03-20T20:50:02;11.40;99.90
13223;DHT22;6676;45.192;5.722;2023-03-20T20:52:54;11.40;99.90
13223;DHT22;6676;45.192;5.722;2023-03-20T20:58:23;11.30;99.90
13223;DHT22;6676;45.192;5.722;2023-03-20T21:01:14;11.30;99.90
13223;DHT22;6676;45.192;5.722;2023-03-20T21:04:06;11.30;99.90
13223;DHT22;6676;45.192;5.722;2023-03-20T21:06:57;11.20;99.90
13223;DHT22;6676;45.192;5.722;2023-03-20T21:09:49;11.10;99.90
13223;DHT22;6676;45.192;5.722;2023-03-20T21:12:41;11.20;99.90
13223;DHT22;6676;45.192;5.722;2023-03-20T21:18:12;11.10;99.90
13223;DHT22;6676;45.192;5.722;2023-03-20T21:21:05;11.10;99.90
13223;DHT22;6676;45.192;5.722;2023-03-20T21:23:57;11.00;99.90
13223;DHT22;6676;45.192;5.722;2023-03-20T21:26:48;11.00;99.90
13223;DHT22;6676;45.192;5.722;2023-03-20T21:29:41;10.90;99.90
13223;DHT22;6676;45.192;5.722;2023-03-20T21:32:32;10.90;99.90
13223;DHT22;6676;45.192;5.722;2023-03-20T21:35:26;10.90;99.90
13223;DHT22;6676;45.192;5.722;2023-03-20T21:38:18;10.80;99.90
13223;DHT22;6676;45.192;5.722;2023-03-20T21:43:50;10.90;99.90
13223;DHT22;6676;45.192;5.722;2023-03-20T21:46:43;10.70;99.90
13223;DHT22;6676;45.192;5.722;2023-03-20T21:49:35;10.70;99.90
13223;DHT22;6676;45.192;5.722;2023-03-20T21:55:10;10.60;99.90
13223;DHT22;6676;45.192;5.722;2023-03-20T21:58:02;10.60;99.90
13223;DHT22;6676;45.192;5.722;2023-03-20T22:03:34;10.60;99.90
13223;DHT22;6676;45.192;5.722;2023-03-20T22:06:27;10.60;99.90
13223;DHT22;6676;45.192;5.722;2023-03-20T22:09:20;10.50;99.90
13223;DHT22;6676;45.192;5.722;2023-03-20T22:12:13;10.40;99.90
13223;DHT22;6676;45.192;5.722;2023-03-20T22:15:08;10.40;99.90
13223;DHT22;6676;45.192;5.722;2023-03-20T22:18:00;10.30;99.90
13223;DHT22;6676;45.192;5.722;2023-03-20T22:20:55;10.30;99.90
13223;DHT22;6676;45.192;5.722;2023-03-20T22:26:35;10.20;99.90
13223;DHT22;6676;45.192;5.722;2023-03-20T22:29:28;10.10;99.90
13223;DHT22;6676;45.192;5.722;2023-03-20T22:32:21;10.10;99.90
13223;DHT22;6676;45.192;5.722;2023-03-20T22:37:53;9.90;99.90
13223;DHT22;6676;45.192;5.722;2023-03-20T22:43:26;10.00;99.90
13223;DHT22;6676;45.192;5.722;2023-03-20T22:46:19;9.90;99.90
13223;DHT22;6676;45.192;5.722;2023-03-20T22:49:12;9.90;99.90
13223;DHT22;6676;45.192;5.722;2023-03-20T22:52:04;9.80;99.90
13223;DHT22;6676;45.192;5.722;2023-03-20T22:54:57;9.70;99.90
13223;DHT22;6676;45.192;5.722;2023-03-20T22:57:48;9.70;99.90
13223;DHT22;6676;45.192;5.722;2023-03-20T23:03:27;9.80;99.90
13223;DHT22;6676;45.192;5.722;2023-03-20T23:06:24;9.80;99.90
13223;DHT22;6676;45.192;5.722;2023-03-20T23:11:56;9.70;99.90
13223;DHT22;6676;45.192;5.722;2023-03-20T23:14:48;9.70;99.90
13223;DHT22;6676;45.192;5.722;2023-03-20T23:20:27;9.80;99.90
13223;DHT22;6676;45.192;5.722;2023-03-20T23:26:04;9.60;99.90
13223;DHT22;6676;45.192;5.722;2023-03-20T23:28:56;9.60;99.90
13223;DHT22;6676;45.192;5.722;2023-03-20T23:31:50;9.60;99.90
13223;DHT22;6676;45.192;5.722;2023-03-20T23:37:24;9.60;99.90
13223;DHT22;6676;45.192;5.722;2023-03-20T23:40:16;9.60;99.90
13223;DHT22;6676;45.192;5.722;2023-03-20T23:43:07;9.60;99.90
13223;DHT22;6676;45.192;5.722;2023-03-20T23:45:59;9.50;99.90
13223;DHT22;6676;45.192;5.722;2023-03-20T23:48:51;9.30;99.90
13223;DHT22;6676;45.192;5.722;2023-03-20T23:54:22;9.10;99.90
13223;DHT22;6676;45.192;5.722;2023-03-20T23:57:14;9.10;99.90
